Tuesday, January 22, 2019, 4:04 PM EST
Back to Local

K1V4, St Johnsbury Fairbanks

Location: Saint Johnsbury, VT, United States Lat: 44.417
Local Time: 4:04 PM EST (21:04 GMT) Lon: -72.017
Time Zone: US/Eastern Elev: 695 ft

Show me the last for .
Show Coded

Time T Td Feel RH Dir Speed Gust Alt SLP Vis Weather Sky Remarks
2019-01-22 14:54 12 -5 - 45 - - - 30.50 30.58 0 None
2019-01-22 13:54 10 -7 - 44 - - - 30.48 30.57 0 None
2019-01-22 12:54 7 -9 - 46 - - - 30.50 30.58 0 6-hr Min Temp (1pm): -15.0°F
6-hr Max Temp (1pm): 7.0°F
2019-01-22 11:54 4 -10 - 51 - - - 30.49 30.58 0 None
2019-01-22 10:54 1 -12 - 53 - - - 30.52 30.61 0 None
2019-01-22 09:54 -4 -11 - 70 - - - 30.53 30.62 0 None
2019-01-22 08:54 -11 -16 - 77 - - - 30.50 30.60 0 None
2019-01-22 07:54 -14 -19 - 77 - - - 30.47 30.57 0 None
2019-01-22 06:54 -14 -18 - 81 - - - 30.42 30.53 0 24-hr Precip Total (7am): 0.04"
6-hr Min Temp (7am): -14.1°F
6-hr Max Temp (7am): -2.9°F
2019-01-22 05:54 -12 -16 - 81 - - - 30.37 30.48 0 None
2019-01-22 04:54 -9 -14 - 77 - - - 30.34 30.45 0 None
2019-01-22 03:54 -7 -13 - 74 - - - 30.32 30.42 0 None
2019-01-22 02:54 -5 -13 - 67 - - - 30.29 30.39 0 None
2019-01-22 01:54 -3 -13 - 60 - - - 30.26 30.35 0 Pressure rising rapidly
2019-01-22 00:54 -5 -12 - 71 - - - 30.21 30.31 0 6-hr Precip Total (1am): 0.01"
6-hr Min Temp (1am): -5.1°F
6-hr Max Temp (1am): -0.9°F
2019-01-21 23:54 -5 -12 - 71 - - - 30.17 30.27 0 24-hr Min Temp (12am): -7.1°F
24-hr Max Temp (12am): -0.9°F
2019-01-21 22:54 -3 -12 - 64 - - - 30.13 30.23 0 None
2019-01-21 21:54 -1 -12 - 58 - - - 30.09 30.18 0 6-hr Precip Total (10pm): 0.01"
2019-01-21 20:54 -1 -12 - 58 - - - 30.05 30.15 0 None
2019-01-21 19:54 -1 -8 - 71 - - - 30.02 30.11 0 1-hr Precip Total: 0.01"
2019-01-21 18:54 -2 -9 - 71 - - - 29.98 30.07 0 1-hr Precip Total: 0.01"
6-hr Precip Total (7pm): 0.03"
6-hr Min Temp (7pm): -4.0°F
6-hr Max Temp (7pm): -2.0°F
2019-01-21 17:54 -3 -11 - 67 - - - 29.95 30.04 0 None
2019-01-21 16:54 -4 -11 - 70 - - - 29.91 30.00 0 1-hr Precip Total: 0.01"

Support USWX by starting your Amazon purchase here.